createdAt,value
2018-11-28T00:00:09.769Z,5.03
2018-11-28T00:02:37.912Z,5.10
2018-11-28T00:05:09.126Z,5.01
2018-11-28T00:07:37.276Z,5.18
2018-11-28T00:10:09.693Z,5.11
2018-11-28T00:12:38.484Z,5.02
2018-11-28T00:15:08.136Z,4.95
2018-11-28T00:17:36.759Z,4.84
2018-11-28T00:20:06.549Z,4.75
2018-11-28T00:22:34.836Z,4.73
2018-11-28T00:25:03.046Z,4.65
2018-11-28T00:27:31.285Z,4.75
2018-11-28T00:29:59.568Z,4.91
2018-11-28T00:32:27.870Z,4.98
2018-11-28T00:34:56.150Z,4.95
2018-11-28T00:37:24.473Z,4.93
2018-11-28T00:39:52.626Z,4.90
2018-11-28T00:42:21.035Z,4.85
2018-11-28T00:44:49.248Z,4.90
2018-11-28T00:47:17.487Z,5.03
2018-11-28T00:49:45.705Z,5.12
2018-11-28T00:52:13.912Z,4.83
2018-11-28T00:54:42.142Z,5.07
2018-11-28T00:57:10.307Z,5.18
2018-11-28T00:59:38.519Z,5.00
2018-11-28T01:02:06.778Z,5.10
2018-11-28T01:04:35.015Z,5.08
2018-11-28T01:07:03.220Z,5.15
2018-11-28T01:09:31.470Z,5.27
2018-11-28T01:11:59.664Z,5.24
2018-11-28T01:14:28.014Z,5.37
2018-11-28T01:16:56.650Z,5.38
2018-11-28T01:19:24.991Z,5.13
2018-11-28T01:21:53.253Z,5.15
2018-11-28T01:24:21.525Z,5.25
2018-11-28T01:26:49.721Z,5.37
2018-11-28T01:29:17.884Z,5.41
2018-11-28T01:31:46.054Z,5.46
2018-11-28T01:34:14.236Z,5.59
2018-11-28T01:36:42.500Z,5.56
2018-11-28T01:39:10.657Z,5.46
2018-11-28T01:41:38.809Z,5.50
2018-11-28T01:44:07.211Z,5.57
2018-11-28T01:46:35.416Z,5.52
2018-11-28T01:49:03.566Z,5.56
2018-11-28T01:51:31.751Z,5.59
2018-11-28T01:53:59.977Z,5.72
2018-11-28T01:56:28.112Z,5.64
2018-11-28T01:58:56.269Z,5.64
2018-11-28T02:01:24.401Z,5.61
2018-11-28T02:03:52.702Z,5.64
2018-11-28T02:06:20.922Z,5.58
2018-11-28T02:08:49.064Z,5.54
2018-11-28T02:11:17.201Z,5.48
2018-11-28T02:13:45.471Z,5.48
2018-11-28T02:16:13.677Z,5.41
2018-11-28T02:18:41.819Z,5.06
2018-11-28T02:21:09.976Z,4.95
2018-11-28T02:23:38.209Z,4.90
2018-11-28T02:26:06.382Z,4.95
2018-11-28T02:28:34.536Z,5.04
2018-11-28T02:31:02.769Z,5.10
2018-11-28T02:33:30.926Z,5.10
2018-11-28T02:35:59.066Z,5.12
2018-11-28T02:38:27.245Z,5.17
2018-11-28T02:40:55.551Z,5.32
2018-11-28T02:43:23.738Z,5.33
2018-11-28T02:46:03.200Z,5.41
2018-11-28T02:48:31.399Z,5.38
2018-11-28T02:50:59.701Z,5.29
2018-11-28T02:53:27.848Z,5.24
2018-11-28T02:55:56.179Z,5.05
2018-11-28T02:58:24.303Z,4.69
2018-11-28T03:00:52.529Z,4.58
2018-11-28T03:03:21.379Z,4.70
2018-11-28T03:05:48.926Z,4.81
2018-11-28T03:08:17.096Z,4.91
2018-11-28T03:10:45.382Z,4.95
2018-11-28T03:13:13.559Z,4.97
2018-11-28T03:15:44.057Z,5.03
2018-11-28T03:18:12.309Z,5.10
2018-11-28T03:20:40.522Z,5.11
2018-11-28T03:23:08.745Z,5.09
2018-11-28T03:25:36.980Z,5.22
2018-11-28T03:28:05.161Z,5.35
2018-11-28T03:30:33.362Z,5.54
2018-11-28T03:33:01.497Z,5.59
2018-11-28T03:35:29.767Z,5.54
2018-11-28T03:37:57.947Z,5.37
2018-11-28T03:40:26.478Z,5.19
2018-11-28T03:42:54.658Z,5.27
2018-11-28T03:45:22.875Z,5.36
2018-11-28T03:47:51.009Z,5.37
2018-11-28T03:50:19.157Z,5.37
2018-11-28T03:52:47.318Z,5.31
2018-11-28T03:55:16.237Z,5.20
2018-11-28T03:57:45.590Z,5.07
2018-11-28T04:00:14.875Z,5.07
2018-11-28T04:02:43.072Z,5.02
2018-11-28T04:05:12.471Z,5.11
2018-11-28T04:07:40.745Z,4.93
2018-11-28T04:10:10.734Z,5.01
2018-11-28T04:12:39.406Z,5.09
2018-11-28T04:15:12.431Z,5.08
2018-11-28T04:17:40.602Z,5.13
2018-11-28T04:20:10.623Z,5.09
2018-11-28T04:22:38.764Z,5.14
2018-11-28T04:25:08.079Z,5.25
2018-11-28T04:27:36.234Z,5.49
2018-11-28T04:30:05.275Z,5.35
2018-11-28T04:32:33.420Z,5.28
2018-11-28T04:35:01.628Z,5.30
2018-11-28T04:37:29.885Z,5.38
2018-11-28T04:39:58.044Z,5.33
2018-11-28T04:42:26.221Z,5.31
2018-11-28T04:44:54.458Z,5.37
2018-11-28T04:47:22.647Z,5.51
2018-11-28T04:49:50.847Z,5.54
2018-11-28T04:52:22.363Z,5.57
2018-11-28T04:54:50.569Z,5.55
2018-11-28T04:57:18.699Z,5.56
2018-11-28T04:59:46.916Z,5.58
2018-11-28T05:02:15.084Z,5.56
2018-11-28T05:04:43.258Z,5.57
2018-11-28T05:07:30.781Z,5.63
2018-11-28T05:09:59.462Z,5.65
2018-11-28T05:12:27.697Z,5.52
2018-11-28T05:14:55.979Z,5.54
2018-11-28T05:17:25.041Z,5.52
2018-11-28T05:19:53.192Z,5.27
2018-11-28T05:22:21.413Z,4.90
2018-11-28T05:24:50.026Z,4.94
2018-11-28T05:27:18.215Z,4.87
2018-11-28T05:29:46.416Z,4.77
2018-11-28T05:32:14.585Z,4.73
2018-11-28T05:34:42.854Z,4.81
2018-11-28T05:37:11.055Z,4.65
2018-11-28T05:39:39.302Z,4.59
2018-11-28T05:42:07.450Z,4.70
2018-11-28T05:44:35.743Z,4.59
2018-11-28T05:47:04.018Z,4.69
2018-11-28T05:49:32.305Z,4.67
2018-11-28T05:52:00.583Z,4.65
2018-11-28T05:54:28.846Z,4.64
2018-11-28T05:56:57.124Z,4.57
2018-11-28T05:59:27.567Z,4.46
2018-11-28T06:01:53.710Z,4.42
2018-11-28T06:04:21.852Z,4.33
2018-11-28T06:06:50.068Z,4.31
2018-11-28T06:09:18.226Z,4.28
2018-11-28T06:11:47.074Z,4.28
2018-11-28T06:14:16.027Z,4.38
2018-11-28T06:16:44.266Z,4.36
2018-11-28T06:19:13.190Z,4.30
2018-11-28T06:21:41.427Z,4.22
2018-11-28T06:24:09.678Z,4.19
2018-11-28T06:26:37.837Z,4.20
2018-11-28T06:29:06.654Z,4.15
2018-11-28T06:31:34.828Z,4.16
2018-11-28T06:34:03.451Z,4.13
2018-11-28T06:36:31.682Z,4.17
2018-11-28T06:38:59.850Z,4.10
2018-11-28T06:41:29.091Z,4.10
2018-11-28T06:43:57.280Z,4.11
2018-11-28T06:46:25.419Z,4.09
2018-11-28T06:48:53.575Z,4.12
2018-11-28T06:51:21.803Z,4.14
2018-11-28T06:53:50.022Z,4.15
2018-11-28T06:56:18.214Z,4.12
2018-11-28T06:58:46.537Z,4.08
2018-11-28T07:01:14.796Z,4.12
2018-11-28T07:03:42.952Z,4.12
2018-11-28T07:06:11.129Z,4.14
2018-11-28T07:08:39.276Z,4.11
2018-11-28T07:11:07.452Z,4.16
2018-11-28T07:13:35.676Z,4.23
2018-11-28T07:16:03.847Z,4.19
2018-11-28T07:18:43.480Z,4.20
2018-11-28T07:21:11.912Z,4.20
2018-11-28T07:23:40.084Z,4.20
2018-11-28T07:26:08.247Z,4.41
2018-11-28T07:28:36.466Z,4.38
2018-11-28T07:31:04.700Z,4.36
2018-11-28T07:33:33.466Z,4.32
2018-11-28T07:36:01.618Z,4.31
2018-11-28T07:38:29.832Z,4.23
2018-11-28T07:40:57.984Z,4.32
2018-11-28T07:43:26.186Z,4.33
2018-11-28T07:45:54.350Z,4.30
2018-11-28T07:48:22.578Z,4.27
2018-11-28T07:50:50.812Z,4.24
2018-11-28T07:53:19.334Z,4.29
2018-11-28T07:55:47.483Z,4.26
2018-11-28T07:58:15.725Z,4.28
2018-11-28T08:00:45.094Z,4.29
2018-11-28T08:03:13.243Z,4.41
2018-11-28T08:05:41.483Z,4.45
2018-11-28T08:08:10.688Z,4.50
2018-11-28T08:10:38.923Z,4.54
2018-11-28T08:13:07.745Z,4.55
2018-11-28T08:15:35.953Z,4.69
2018-11-28T08:18:04.093Z,4.76
2018-11-28T08:20:32.239Z,4.61
2018-11-28T08:23:00.717Z,4.54
2018-11-28T08:25:29.007Z,4.55
2018-11-28T08:27:57.374Z,4.58
2018-11-28T08:30:26.454Z,4.52
2018-11-28T08:32:55.500Z,4.47
2018-11-28T08:35:23.865Z,4.48
2018-11-28T08:37:52.114Z,4.43
2018-11-28T08:40:22.784Z,4.53
2018-11-28T08:42:51.185Z,4.53
2018-11-28T08:45:20.234Z,4.56
2018-11-28T08:47:49.499Z,4.56
2018-11-28T08:50:19.892Z,4.63
2018-11-28T08:52:48.544Z,4.62
2018-11-28T08:55:16.752Z,4.50
2018-11-28T08:57:45.016Z,4.50
2018-11-28T09:00:15.133Z,4.51
2018-11-28T09:02:43.705Z,4.46
2018-11-28T09:05:13.056Z,4.43
2018-11-28T09:07:41.239Z,4.47
2018-11-28T09:10:13.611Z,4.50
2018-11-28T09:12:41.889Z,4.59
2018-11-28T09:15:14.121Z,4.70
2018-11-28T09:17:42.359Z,4.62
2018-11-28T09:20:11.824Z,4.59
2018-11-28T09:22:39.994Z,4.62
2018-11-28T09:25:10.687Z,4.59
2018-11-28T09:27:38.877Z,4.51
2018-11-28T09:30:10.501Z,4.53
2018-11-28T09:32:38.691Z,4.71
2018-11-28T09:35:08.338Z,4.75
2018-11-28T09:37:36.520Z,4.66
2018-11-28T09:40:10.004Z,4.57
2018-11-28T09:42:42.315Z,4.52
2018-11-28T09:45:12.068Z,4.66
2018-11-28T09:47:40.352Z,4.75
2018-11-28T09:50:10.769Z,4.65
2018-11-28T09:52:39.034Z,4.64
2018-11-28T09:55:09.112Z,4.57
2018-11-28T09:57:37.316Z,4.75
2018-11-28T10:00:08.861Z,4.74
2018-11-28T10:02:37.069Z,4.72
2018-11-28T10:05:06.542Z,4.89
2018-11-28T10:07:34.795Z,4.79
2018-11-28T10:10:03.131Z,4.72
2018-11-28T10:12:31.390Z,4.68
2018-11-28T10:14:59.576Z,4.67
2018-11-28T10:17:27.751Z,4.65
2018-11-28T10:19:56.006Z,4.72
2018-11-28T10:22:24.172Z,4.58
2018-11-28T10:24:52.358Z,4.55
2018-11-28T10:27:20.582Z,4.59
2018-11-28T10:29:48.821Z,4.73
2018-11-28T10:32:17.002Z,4.68
2018-11-28T10:34:45.289Z,4.71
2018-11-28T10:37:14.294Z,4.68
2018-11-28T10:39:42.472Z,4.67
2018-11-28T10:42:10.807Z,4.87
2018-11-28T10:44:39.081Z,4.84
2018-11-28T10:47:07.349Z,4.95
2018-11-28T10:49:35.644Z,4.95
2018-11-28T10:52:03.900Z,4.95
2018-11-28T10:54:32.166Z,4.98
2018-11-28T10:57:00.405Z,4.99
2018-11-28T10:59:28.617Z,4.99
2018-11-28T11:02:02.129Z,4.93
2018-11-28T11:04:35.790Z,5.07
2018-11-28T11:07:09.253Z,5.04
2018-11-28T11:09:42.705Z,5.03
2018-11-28T11:12:16.106Z,4.94
2018-11-28T11:14:46.939Z,4.92
2018-11-28T11:17:15.229Z,5.17
2018-11-28T11:19:43.507Z,5.06
2018-11-28T11:22:11.692Z,5.08
2018-11-28T11:24:39.977Z,5.16
2018-11-28T11:27:09.566Z,5.22
2018-11-28T11:29:37.737Z,5.25
2018-11-28T11:32:05.978Z,5.20
2018-11-28T11:34:34.151Z,5.25
2018-11-28T11:37:02.345Z,5.32
2018-11-28T11:39:31.189Z,5.51
2018-11-28T11:41:59.349Z,5.36
2018-11-28T11:44:27.589Z,5.41
2018-11-28T11:46:55.785Z,5.52
2018-11-28T11:49:24.038Z,5.63
2018-11-28T11:51:52.316Z,5.64
2018-11-28T11:54:20.510Z,5.49
2018-11-28T11:56:48.758Z,5.43
2018-11-28T11:59:16.929Z,5.67
2018-11-28T12:01:45.159Z,5.64
2018-11-28T12:04:13.409Z,5.71
2018-11-28T12:06:41.657Z,5.80
2018-11-28T12:09:10.230Z,5.60
2018-11-28T12:11:38.409Z,5.49
2018-11-28T12:14:06.810Z,5.74
2018-11-28T12:16:35.100Z,5.60
2018-11-28T12:19:03.364Z,5.41
2018-11-28T12:21:31.535Z,5.46
2018-11-28T12:23:59.766Z,5.57
2018-11-28T12:26:27.968Z,5.82
2018-11-28T12:28:56.138Z,5.56
2018-11-28T12:31:24.422Z,5.64
2018-11-28T12:33:52.590Z,5.73
2018-11-28T12:36:20.766Z,5.64
2018-11-28T12:38:49.005Z,5.67
2018-11-28T12:41:17.278Z,5.72
2018-11-28T12:43:45.390Z,5.88
2018-11-28T12:46:13.646Z,6.03
2018-11-28T12:48:41.842Z,5.94
2018-11-28T12:51:10.101Z,5.90
2018-11-28T12:53:38.424Z,5.87
2018-11-28T12:56:06.657Z,6.03
2018-11-28T12:58:34.942Z,6.05
2018-11-28T13:01:03.882Z,6.29
2018-11-28T13:03:32.105Z,6.18
2018-11-28T13:06:00.385Z,6.08
2018-11-28T13:08:28.580Z,6.01
2018-11-28T13:10:56.824Z,6.10
2018-11-28T13:13:24.995Z,6.15
2018-11-28T13:15:53.212Z,6.08
2018-11-28T13:18:21.449Z,6.22
2018-11-28T13:20:49.720Z,6.10
2018-11-28T13:23:17.936Z,5.93
2018-11-28T13:25:46.167Z,5.77
2018-11-28T13:28:14.548Z,5.83
2018-11-28T13:30:42.756Z,5.91
2018-11-28T13:33:10.994Z,5.94
2018-11-28T13:35:39.184Z,5.99
2018-11-28T13:38:11.493Z,5.94
2018-11-28T13:40:39.829Z,5.77
2018-11-28T13:43:08.102Z,5.67
2018-11-28T13:45:38.746Z,5.64
2018-11-28T13:48:07.004Z,5.61
2018-11-28T13:50:35.199Z,5.73
2018-11-28T13:53:06.568Z,5.83
2018-11-28T13:55:38.363Z,5.74
2018-11-28T13:58:05.388Z,5.81
2018-11-28T14:00:33.627Z,5.90
2018-11-28T14:03:01.888Z,6.09
2018-11-28T14:05:30.182Z,5.98
2018-11-28T14:07:58.444Z,5.90
2018-11-28T14:10:26.625Z,5.84
2018-11-28T14:12:55.961Z,5.77
2018-11-28T14:15:24.321Z,5.81
2018-11-28T14:18:01.085Z,5.77
2018-11-28T14:20:29.300Z,5.82
2018-11-28T14:22:57.513Z,5.97
2018-11-28T14:25:25.896Z,5.82
2018-11-28T14:27:53.939Z,5.77
2018-11-28T14:30:23.331Z,5.87
2018-11-28T14:32:52.106Z,5.80
2018-11-28T14:35:20.834Z,5.86
2018-11-28T14:37:49.182Z,5.88
2018-11-28T14:40:22.397Z,5.87
2018-11-28T14:42:52.728Z,5.78
2018-11-28T14:45:20.987Z,5.78
2018-11-28T14:47:50.178Z,5.85
2018-11-28T14:50:28.310Z,5.87
2018-11-28T14:52:58.680Z,5.87
2018-11-28T14:55:33.133Z,5.79
2018-11-28T14:58:01.432Z,5.67
2018-11-28T15:00:30.442Z,5.58
2018-11-28T15:03:11.764Z,5.65
2018-11-28T15:07:49.473Z,5.70
2018-11-28T15:10:18.201Z,5.64
2018-11-28T15:12:46.375Z,5.67
2018-11-28T15:15:15.110Z,5.70
2018-11-28T15:17:43.277Z,5.65
2018-11-28T15:20:11.486Z,5.58
2018-11-28T15:22:39.680Z,5.51
2018-11-28T15:25:09.498Z,5.47
2018-11-28T15:27:37.682Z,5.44
2018-11-28T15:30:07.303Z,5.40
2018-11-28T15:32:35.546Z,5.43
2018-11-28T15:35:03.870Z,5.42
2018-11-28T15:37:32.089Z,5.47
2018-11-28T15:40:00.286Z,5.52
2018-11-28T15:42:28.593Z,5.53
2018-11-28T15:44:56.773Z,5.52
2018-11-28T15:47:25.012Z,5.54
2018-11-28T15:49:53.201Z,5.54
2018-11-28T15:52:21.452Z,5.51
2018-11-28T15:54:49.622Z,5.38
2018-11-28T15:57:18.255Z,5.46
2018-11-28T15:59:46.430Z,5.51
2018-11-28T16:02:14.666Z,5.61
2018-11-28T16:04:42.852Z,5.64
2018-11-28T16:07:11.100Z,5.64
2018-11-28T16:09:44.729Z,5.65
2018-11-28T16:12:13.704Z,5.60
2018-11-28T16:14:41.873Z,5.69
2018-11-28T16:17:10.089Z,5.79
2018-11-28T16:19:38.286Z,5.72
2018-11-28T16:22:06.492Z,5.73
2018-11-28T16:24:34.791Z,5.71
2018-11-28T16:27:03.048Z,5.66
2018-11-28T16:29:31.425Z,5.60
2018-11-28T16:31:59.693Z,5.58
2018-11-28T16:34:27.869Z,5.48
2018-11-28T16:36:56.062Z,5.80
2018-11-28T16:39:24.249Z,5.89
2018-11-28T16:41:52.588Z,5.91
2018-11-28T16:44:20.789Z,5.98
2018-11-28T16:46:49.044Z,5.96
2018-11-28T16:49:17.221Z,5.92
2018-11-28T16:51:46.383Z,5.85
2018-11-28T16:54:14.605Z,5.83
2018-11-28T16:56:42.881Z,5.79
2018-11-28T16:59:11.050Z,5.75
2018-11-28T17:01:39.351Z,5.71
2018-11-28T17:04:08.460Z,5.68
2018-11-28T17:06:36.678Z,5.62
2018-11-28T17:09:07.558Z,5.60
2018-11-28T17:11:36.452Z,5.72
2018-11-28T17:14:04.903Z,5.76
2018-11-28T17:16:33.124Z,5.69
2018-11-28T17:19:02.385Z,5.74
2018-11-28T17:21:30.665Z,5.73
2018-11-28T17:23:58.846Z,5.77
2018-11-28T17:26:27.223Z,5.83
2018-11-28T17:28:55.466Z,5.77
2018-11-28T17:31:24.202Z,5.79
2018-11-28T17:33:53.936Z,5.57
2018-11-28T17:36:22.165Z,5.55
2018-11-28T17:38:50.384Z,5.55
2018-11-28T17:41:18.729Z,5.55
2018-11-28T17:43:46.926Z,5.54
2018-11-28T17:46:15.142Z,5.52
2018-11-28T17:48:43.342Z,5.74
2018-11-28T17:51:11.591Z,5.75
2018-11-28T17:53:39.762Z,5.71
2018-11-28T17:56:07.960Z,5.50
2018-11-28T17:58:36.129Z,5.53
2018-11-28T18:01:04.304Z,5.56
2018-11-28T18:03:33.457Z,5.56
2018-11-28T18:06:01.753Z,5.55
2018-11-28T18:08:29.932Z,5.54
2018-11-28T18:11:10.193Z,5.66
2018-11-28T18:13:39.621Z,5.79
2018-11-28T18:16:07.142Z,5.77
2018-11-28T18:18:35.327Z,5.81
2018-11-28T18:21:03.497Z,5.93
2018-11-28T18:23:34.244Z,5.88
2018-11-28T18:26:06.861Z,5.92
2018-11-28T18:28:36.867Z,5.87
2018-11-28T18:31:06.976Z,5.84
2018-11-28T18:33:36.068Z,5.90
2018-11-28T18:36:04.298Z,5.89
2018-11-28T18:38:32.685Z,5.86
2018-11-28T18:41:01.408Z,5.82
2018-11-28T18:43:29.565Z,5.84
2018-11-28T18:45:58.172Z,5.73
2018-11-28T18:48:26.096Z,5.83
2018-11-28T18:50:54.277Z,5.76
2018-11-28T18:53:22.994Z,5.65
2018-11-28T18:55:51.407Z,5.72
2018-11-28T18:58:19.713Z,5.79
2018-11-28T19:00:48.025Z,5.77
2018-11-28T19:03:17.956Z,5.73
2018-11-28T19:05:47.602Z,5.74
2018-11-28T19:08:17.390Z,5.78
2018-11-28T19:10:47.668Z,5.80
2018-11-28T19:13:18.183Z,5.77
2018-11-28T19:15:45.762Z,5.81
2018-11-28T19:18:14.018Z,5.83
2018-11-28T19:20:42.256Z,5.86
2018-11-28T19:23:10.549Z,5.89
2018-11-28T19:25:38.823Z,5.91
2018-11-28T19:28:07.030Z,5.95
2018-11-28T19:30:37.326Z,5.98
2018-11-28T19:33:07.130Z,6.00
2018-11-28T19:35:35.400Z,6.03
2018-11-28T19:38:03.585Z,6.10
2018-11-28T19:40:34.826Z,6.18
2018-11-28T19:43:03.039Z,6.26
2018-11-28T19:45:31.165Z,6.26
2018-11-28T19:47:59.374Z,6.25
2018-11-28T19:50:29.140Z,6.24
2018-11-28T19:52:57.333Z,6.22
2018-11-28T19:55:25.538Z,5.97
2018-11-28T19:57:53.806Z,6.02
2018-11-28T20:00:22.054Z,6.06
2018-11-28T20:02:50.239Z,6.10
2018-11-28T20:05:18.422Z,6.13
2018-11-28T20:07:49.740Z,6.16
2018-11-28T20:10:20.089Z,6.17
2018-11-28T20:12:48.377Z,6.18
2018-11-28T20:15:21.829Z,6.30
2018-11-28T20:17:50.426Z,6.29
2018-11-28T20:20:18.713Z,6.18
2018-11-28T20:22:46.898Z,6.23
2018-11-28T20:25:16.071Z,6.23
2018-11-28T20:27:45.593Z,6.16
2018-11-28T20:30:17.429Z,6.11
2018-11-28T20:32:45.679Z,6.01
2018-11-28T20:35:13.893Z,6.06
2018-11-28T20:37:42.514Z,6.08
2018-11-28T20:40:13.843Z,6.15
2018-11-28T20:42:44.363Z,6.03
2018-11-28T20:45:12.717Z,6.08
2018-11-28T20:47:41.007Z,6.14
2018-11-28T20:50:12.565Z,6.17
2018-11-28T20:52:41.650Z,6.18
2018-11-28T20:55:10.623Z,6.21
2018-11-28T20:57:41.792Z,6.24
2018-11-28T21:00:27.510Z,6.26
2018-11-28T21:02:55.752Z,6.16
2018-11-28T21:05:24.022Z,6.18
2018-11-28T21:07:52.266Z,6.24
2018-11-28T21:10:25.939Z,6.25
2018-11-28T21:12:54.132Z,6.22
2018-11-28T21:15:22.302Z,6.22
2018-11-28T21:17:50.630Z,6.20
2018-11-28T21:20:21.194Z,6.18
2018-11-28T21:22:51.676Z,6.20
2018-11-28T21:25:19.832Z,6.22
2018-11-28T21:27:48.100Z,6.27
2018-11-28T21:30:17.747Z,6.35
2018-11-28T21:33:17.481Z,6.49
2018-11-28T21:35:53.173Z,6.43
2018-11-28T21:38:23.719Z,6.46
2018-11-28T21:40:52.024Z,6.49
2018-11-28T21:43:20.919Z,6.62
2018-11-28T21:45:50.138Z,6.80
2018-11-28T21:48:18.479Z,6.99
2018-11-28T21:50:46.673Z,6.99
2018-11-28T21:53:14.919Z,6.94
2018-11-28T21:55:43.209Z,6.97
2018-11-28T21:58:11.510Z,6.92
2018-11-28T22:00:39.752Z,6.96
2018-11-28T22:03:08.526Z,6.84
2018-11-28T22:05:36.965Z,6.72
2018-11-28T22:08:05.317Z,6.70
2018-11-28T22:10:33.657Z,6.61
2018-11-28T22:13:02.937Z,6.57
2018-11-28T22:15:31.157Z,6.61
2018-11-28T22:17:59.533Z,6.60
2018-11-28T22:20:27.890Z,6.63
2018-11-28T22:22:56.085Z,6.57
2018-11-28T22:25:26.448Z,6.50
2018-11-28T22:27:54.856Z,6.59
2018-11-28T22:30:25.265Z,6.59
2018-11-28T22:32:53.446Z,6.68
2018-11-28T22:35:21.628Z,6.68
2018-11-28T22:37:49.799Z,6.55
2018-11-28T22:40:24.019Z,6.56
2018-11-28T22:42:52.273Z,6.55
2018-11-28T22:45:28.676Z,6.76
2018-11-28T22:47:56.906Z,6.82
2018-11-28T22:50:25.126Z,6.96
2018-11-28T22:52:53.401Z,6.95
2018-11-28T22:55:21.626Z,7.03
2018-11-28T22:57:50.125Z,7.07
2018-11-28T23:00:28.028Z,6.93
2018-11-28T23:03:03.683Z,6.82
2018-11-28T23:05:38.875Z,6.84
2018-11-28T23:08:08.449Z,7.01
2018-11-28T23:10:37.420Z,7.03
2018-11-28T23:13:06.329Z,6.94
2018-11-28T23:15:34.647Z,6.98
2018-11-28T23:18:02.845Z,7.07
2018-11-28T23:20:31.152Z,7.01
2018-11-28T23:22:59.341Z,7.04
2018-11-28T23:25:27.513Z,7.01
2018-11-28T23:27:55.795Z,6.88
2018-11-28T23:30:23.962Z,6.88
2018-11-28T23:32:53.689Z,6.98
2018-11-28T23:35:22.252Z,6.94
2018-11-28T23:37:50.627Z,6.98
2018-11-28T23:40:20.811Z,6.95
2018-11-28T23:42:49.240Z,6.96
2018-11-28T23:45:19.555Z,6.97
2018-11-28T23:47:48.126Z,6.98
2018-11-28T23:50:18.635Z,6.94
2018-11-28T23:52:48.067Z,6.98
2018-11-28T23:55:26.930Z,7.06
2018-11-28T23:57:55.310Z,7.18
